Terminal Aerodrome Forecast
Issued by NWS

Home | Current Version | Previous Version | Graphics & Text | Print | Product List | Glossary On
Versions: 1 2 3 4 5 6 7 8 9 10 11 12 13 14 15 16
000
FTUS43 KGRB 271737
TAFMTW
TAF
KMTW 271737Z 2718/2818 13007KT P6SM FEW050 SCT250
     FM280100 VRB03KT P6SM SKC
      TEMPO 2810/2812 3SM BR
     FM281200 15009KT P6SM BKN200=

USA.gov is the U.S. government's official web portal to all federal, state and local government web resources and services.